Time;durP1;ratioP1;P1;durP2;ratioP2;P2;SDS_P1;SDS_P2;PMS_P1;PMS_P2;Temp;Humidity;BMP_temperature;BMP_pressure;BME280_temperature;BME280_humidity;BME280_pressure;Samples;Min_cycle;Max_cycle;Signal;HPM_P1;HPM_P2
2023/05/13 00:01:17;;;;;;;;;;;;;;;;;;6156093;23;19927;-80
2023/05/13 00:03:44;;;;;;;;;;;;;;;;;;6180976;23;19920;-80
2023/05/13 00:06:11;;;;;;;;;;;;;;;;;;6189140;23;19920;-79
2023/05/13 00:08:38;;;;;;;;;;;;;;;;;;6179761;23;19911;-79
2023/05/13 00:11:06;;;;;;;;;;;;;;;;;;6189567;23;19920;-79
2023/05/13 00:13:35;;;;;;;;;;;;;;;;;;6179996;23;19924;-79
2023/05/13 00:16:02;;;;;;;;;;;;;;;;;;6215836;23;19927;-79
2023/05/13 00:18:29;;;;;;;;;;;;;;;;;;6179468;23;19926;-79
2023/05/13 00:20:56;;;;;;;;;;;;;;;;;;6178802;23;19920;-79
2023/05/13 00:23:23;;;;;;;;;;;;;;;;;;6180266;23;19935;-79
2023/05/13 00:25:50;;;;;;;;;;;;;;;;;;6206103;23;20259;-79
2023/05/13 00:28:18;;;;;;;;;;;;;;;;;;6180454;23;19920;-79
2023/05/13 00:30:48;;;;;;;;;;;;;;;;;;6155126;23;19927;-79
2023/05/13 00:33:15;;;;;;;;;;;;;;;;;;6205790;23;19923;-80
2023/05/13 00:35:42;;;;;;;;;;;;;;;;;;6179458;23;19924;-79
2023/05/13 00:38:09;;;;;;;;;;;;;;;;;;6179637;23;19920;-79
2023/05/13 00:40:37;;;;;;;;;;;;;;;;;;6180293;23;19920;-79
2023/05/13 00:43:05;;;;;;;;;;;;;;;;;;6179870;23;19920;-79
2023/05/13 00:45:32;;;;;;;;;;;;;;;;;;6152917;23;19920;-79
2023/05/13 00:48:01;;;;;;;;;;;;;;;;;;6179811;23;19920;-79
2023/05/13 00:50:28;;;;;;;;;;;;;;;;;;6154997;23;19920;-79
2023/05/13 00:52:55;;;;;;;;;;;;;;;;;;6180053;23;19920;-79
2023/05/13 00:55:22;;;;;;;;;;;;;;;;;;6155374;23;19920;-79
2023/05/13 00:57:49;;;;;;;;;;;;;;;;;;6155297;23;19927;-79
2023/05/13 01:00:16;;;;;;;;;;;;;;;;;;6204865;23;19927;-79
2023/05/13 01:02:45;;;;;;;;;;;;;;;;;;6155591;23;19931;-79
2023/05/13 01:05:15;;;;;;;;;;;;;;;;;;6180931;23;20331;-79
2023/05/13 01:07:45;;;;;;;;;;;;;;;;;;6154625;23;19911;-79
2023/05/13 01:10:14;;;;;;;;;;;;;;;;;;6178741;23;19920;-79
2023/05/13 01:12:42;;;;;;;;;;;;;;;;;;6180355;23;19920;-79
2023/05/13 01:15:10;;;;;;;;;;;;;;;;;;6154620;23;20174;-80
2023/05/13 01:17:40;;;;;;;;;;;;;;;;;;6155662;23;19927;-80
2023/05/13 01:20:08;;;;;;;;;;;;;;;;;;6178985;23;19920;-80
2023/05/13 01:22:36;;;;;;;;;;;;;;;;;;6180668;23;19951;-80
2023/05/13 01:25:03;;;;;;;;;;;;;;;;;;6154882;23;19935;-79
2023/05/13 01:27:31;;;;;;;;;;;;;;;;;;6155551;23;19904;-79
2023/05/13 01:29:58;;;;;;;;;;;;;;;;;;6179924;23;19920;-79
2023/05/13 01:32:29;;;;;;;;;;;;;;;;;;6190654;23;19920;-79
2023/05/13 01:34:56;;;;;;;;;;;;;;;;;;6180330;23;19927;-79
2023/05/13 01:37:23;;;;;;;;;;;;;;;;;;6154877;23;19930;-79
2023/05/13 01:39:52;;;;;;;;;;;;;;;;;;6179301;23;19931;-79
2023/05/13 01:42:19;;;;;;;;;;;;;;;;;;6189333;23;19960;-79
2023/05/13 01:44:46;;;;;;;;;;;;;;;;;;6179854;23;20195;-80
2023/05/13 01:47:14;;;;;;;;;;;;;;;;;;6180566;23;19924;-80
2023/05/13 01:49:42;;;;;;;;;;;;;;;;;;6204845;23;19927;-79
2023/05/13 01:52:09;;;;;;;;;;;;;;;;;;6179584;23;19926;-80
2023/05/13 01:54:36;;;;;;;;;;;;;;;;;;6154955;23;20435;-80
2023/05/13 01:57:09;;;;;;;;;;;;;;;;;;6155609;23;20344;-79
2023/05/13 01:59:36;;;;;;;;;;;;;;;;;;6179222;23;19927;-79
2023/05/13 02:02:04;;;;;;;;;;;;;;;;;;6179970;23;19930;-79
2023/05/13 02:04:31;;;;;;;;;;;;;;;;;;6154898;23;19946;-79
2023/05/13 02:06:58;;;;;;;;;;;;;;;;;;6154779;23;19926;-79
2023/05/13 02:09:28;;;;;;;;;;;;;;;;;;6179152;23;19927;-79
2023/05/13 02:11:56;;;;;;;;;;;;;;;;;;6180607;23;19931;-79
2023/05/13 02:14:24;;;;;;;;;;;;;;;;;;6154271;23;19920;-79
2023/05/13 02:16:52;;;;;;;;;;;;;;;;;;6180323;23;19926;-80
2023/05/13 02:19:19;;;;;;;;;;;;;;;;;;6178948;23;19927;-79
2023/05/13 02:21:48;;;;;;;;;;;;;;;;;;6179668;23;19926;-79
2023/05/13 02:24:16;;;;;;;;;;;;;;;;;;6155111;23;19920;-79
2023/05/13 02:26:46;;;;;;;;;;;;;;;;;;6180756;23;19927;-80
2023/05/13 02:29:13;;;;;;;;;;;;;;;;;;6179757;23;19930;-80
2023/05/13 02:31:42;;;;;;;;;;;;;;;;;;6155053;23;19920;-80
2023/05/13 02:34:10;;;;;;;;;;;;;;;;;;6180319;23;19920;-79
2023/05/13 02:36:37;;;;;;;;;;;;;;;;;;6180554;23;19927;-79
2023/05/13 02:39:06;;;;;;;;;;;;;;;;;;6156088;23;19920;-79
2023/05/13 02:41:38;;;;;;;;;;;;;;;;;;6180268;23;19930;-79
2023/05/13 02:44:06;;;;;;;;;;;;;;;;;;6181448;23;19924;-79
2023/05/13 02:46:33;;;;;;;;;;;;;;;;;;6184577;23;19912;-80
2023/05/13 02:49:02;;;;;;;;;;;;;;;;;;6181749;23;19927;-80
2023/05/13 02:51:31;;;;;;;;;;;;;;;;;;6154914;23;20238;-80
2023/05/13 02:53:59;;;;;;;;;;;;;;;;;;6155481;23;19920;-80
2023/05/13 02:56:27;;;;;;;;;;;;;;;;;;6178866;23;19921;-80
2023/05/13 02:58:54;;;;;;;;;;;;;;;;;;6154387;23;19920;-80
2023/05/13 03:01:21;;;;;;;;;;;;;;;;;;6179951;23;19958;-80
2023/05/13 03:03:51;;;;;;;;;;;;;;;;;;6154675;23;19930;-80
2023/05/13 03:06:19;;;;;;;;;;;;;;;;;;6154329;23;19920;-80
2023/05/13 03:08:46;;;;;;;;;;;;;;;;;;6177970;23;19931;-80
2023/05/13 03:11:14;;;;;;;;;;;;;;;;;;6153888;23;19920;-80
2023/05/13 03:13:45;;;;;;;;;;;;;;;;;;6177649;23;19926;-80
2023/05/13 03:16:14;;;;;;;;;;;;;;;;;;6153040;23;19927;-80
2023/05/13 03:18:41;;;;;;;;;;;;;;;;;;6154576;23;19920;-80
2023/05/13 03:21:09;;;;;;;;;;;;;;;;;;6179118;23;19909;-80
2023/05/13 03:23:49;;;;;;;;;;;;;;;;;;6154979;23;19927;-80
2023/05/13 03:26:19;;;;;;;;;;;;;;;;;;6181072;23;19935;-79
2023/05/13 03:28:52;;;;;;;;;;;;;;;;;;6180852;23;19927;-79
2023/05/13 03:31:21;;;;;;;;;;;;;;;;;;6182283;23;19927;-80
2023/05/13 03:33:48;;;;;;;;;;;;;;;;;;6155002;23;19927;-80
2023/05/13 03:36:15;;;;;;;;;;;;;;;;;;6155346;23;19924;-80
2023/05/13 03:38:44;;;;;;;;;;;;;;;;;;6180306;23;19926;-80
2023/05/13 03:41:11;;;;;;;;;;;;;;;;;;6180126;23;19927;-80
2023/05/13 03:43:38;;;;;;;;;;;;;;;;;;6155423;23;19921;-80
2023/05/13 03:46:10;;;;;;;;;;;;;;;;;;6180477;23;19921;-80
2023/05/13 03:48:39;;;;;;;;;;;;;;;;;;6181113;23;19927;-80
2023/05/13 03:51:17;;;;;;;;;;;;;;;;;;6191261;23;19931;-79
2023/05/13 03:53:48;;;;;;;;;;;;;;;;;;6157453;23;19942;-79
2023/05/13 03:56:15;;;;;;;;;;;;;;;;;;6181073;23;19924;-80
2023/05/13 03:58:49;;;;;;;;;;;;;;;;;;6181817;23;19968;-80
2023/05/13 04:01:16;;;;;;;;;;;;;;;;;;6156957;23;19927;-80
2023/05/13 04:03:45;;;;;;;;;;;;;;;;;;6180791;23;19924;-79
2023/05/13 04:06:13;;;;;;;;;;;;;;;;;;6154785;23;19926;-79
2023/05/13 04:08:40;;;;;;;;;;;;;;;;;;6154677;23;19931;-80
2023/05/13 04:11:11;;;;;;;;;;;;;;;;;;6190716;23;19930;-80
2023/05/13 04:14:03;;;;;;;;;;;;;;;;;;6216838;23;19927;-80
2023/05/13 04:16:33;;;;;;;;;;;;;;;;;;6205951;23;19920;-80
2023/05/13 04:19:02;;;;;;;;;;;;;;;;;;6179981;23;19921;-80
2023/05/13 04:21:30;;;;;;;;;;;;;;;;;;6180144;23;19921;-80
2023/05/13 04:23:59;;;;;;;;;;;;;;;;;;6155872;23;19927;-80
2023/05/13 04:26:28;;;;;;;;;;;;;;;;;;6179913;23;19942;-80
2023/05/13 04:28:55;;;;;;;;;;;;;;;;;;6186319;23;19920;-79
2023/05/13 04:31:24;;;;;;;;;;;;;;;;;;6156415;23;19924;-79
2023/05/13 04:33:55;;;;;;;;;;;;;;;;;;6155786;23;19920;-80
2023/05/13 04:36:23;;;;;;;;;;;;;;;;;;6155826;23;19905;-80
2023/05/13 04:38:54;;;;;;;;;;;;;;;;;;6154049;23;19910;-80
2023/05/13 04:41:22;;;;;;;;;;;;;;;;;;6154987;23;19920;-80
2023/05/13 04:43:50;;;;;;;;;;;;;;;;;;6155043;23;19920;-80
2023/05/13 04:46:18;;;;;;;;;;;;;;;;;;6179884;23;19920;-80
2023/05/13 04:48:47;;;;;;;;;;;;;;;;;;6179280;23;19920;-80
2023/05/13 04:51:14;;;;;;;;;;;;;;;;;;6176295;23;19920;-77
2023/05/13 04:53:41;;;;;;;;;;;;;;;;;;6179542;23;20200;-78
2023/05/13 04:56:10;;;;;;;;;;;;;;;;;;6180234;23;19920;-80
2023/05/13 04:58:40;;;;;;;;;;;;;;;;;;6153074;23;19920;-80
2023/05/13 05:01:10;;;;;;;;;;;;;;;;;;6155751;23;19920;-80
2023/05/13 05:03:37;;;;;;;;;;;;;;;;;;6205423;23;19920;-80
2023/05/13 05:06:04;;;;;;;;;;;;;;;;;;6180484;23;19920;-80
2023/05/13 05:08:33;;;;;;;;;;;;;;;;;;6178007;23;19931;-80
2023/05/13 05:11:00;;;;;;;;;;;;;;;;;;6189025;23;19920;-80
2023/05/13 05:13:27;;;;;;;;;;;;;;;;;;6135060;23;20336;-77
2023/05/13 05:15:57;;;;;;;;;;;;;;;;;;6134548;23;19920;-77
2023/05/13 05:18:51;;;;;;;;;;;;;;;;;;6159199;23;20286;-78
2023/05/13 05:21:20;;;;;;;;;;;;;;;;;;6134005;23;20341;-78
2023/05/13 05:23:52;;;;;;;;;;;;;;;;;;6160165;23;19928;-78
2023/05/13 05:26:21;;;;;;;;;;;;;;;;;;6168624;23;19921;-78
2023/05/13 05:28:48;;;;;;;;;;;;;;;;;;6133714;23;19920;-78
2023/05/13 05:31:17;;;;;;;;;;;;;;;;;;6183609;23;19920;-78
2023/05/13 05:33:44;;;;;;;;;;;;;;;;;;6158546;23;19924;-78
2023/05/13 05:36:13;;;;;;;;;;;;;;;;;;6133939;23;19927;-78
2023/05/13 05:38:40;;;;;;;;;;;;;;;;;;6158096;23;19927;-78
2023/05/13 05:41:08;;;;;;;;;;;;;;;;;;6134579;23;19928;-78
2023/05/13 05:43:37;;;;;;;;;;;;;;;;;;6133685;23;19920;-78
2023/05/13 05:46:04;;;;;;;;;;;;;;;;;;6134009;23;19927;-78
2023/05/13 07:40:56;;;;;;;;;;;;;;;;;;6193249;22;19920;-79
2023/05/13 07:43:24;;;;;;;;;;;;;;;;;;6146093;23;19924;-79
2023/05/13 07:45:53;;;;;;;;;;;;;;;;;;6144909;23;19920;-79
2023/05/13 07:48:23;;;;;;;;;;;;;;;;;;6167195;23;19920;-80
2023/05/13 08:28:02;;;;;;;;;;;;;;;;;;6205747;22;19920;-79
2023/05/13 08:30:29;;;;;;;;;;;;;;;;;;6154810;23;20238;-79
2023/05/13 08:32:56;;;;;;;;;;;;;;;;;;6166427;23;19925;-79
2023/05/13 08:35:23;;;;;;;;;;;;;;;;;;6142707;23;20356;-79
2023/05/13 08:37:50;;;;;;;;;;;;;;;;;;6124795;23;19921;-79
2023/05/13 08:40:17;;;;;;;;;;;;;;;;;;6148380;23;19927;-79
2023/05/13 09:33:08;;;;;;;;;;;;;;;;;;6217572;22;19956;-96
2023/05/13 09:35:36;;;;;;;;;;;;;;;;;;6200150;23;19936;-96
2023/05/13 09:38:13;;;;;;;;;;;;;;;;;;6160920;23;19948;-96
2023/05/13 09:40:49;;;;;;;;;;;;;;;;;;6160645;23;19948;-96
2023/05/13 09:43:17;;;;;;;;;;;;;;;;;;6136062;23;19945;-95
2023/05/13 09:45:47;;;;;;;;;;;;;;;;;;6136519;23;19944;-96
2023/05/13 09:48:19;;;;;;;;;;;;;;;;;;6135239;23;19944;-95
2023/05/13 09:50:58;;;;;;;;;;;;;;;;;;6135983;23;19919;-96
2023/05/13 09:53:32;;;;;;;;;;;;;;;;;;6160760;23;19949;-96
2023/05/13 09:56:05;;;;;;;;;;;;;;;;;;6160000;23;19952;-96
2023/05/13 09:58:37;;;;;;;;;;;;;;;;;;6135988;23;19948;-96
2023/05/13 10:01:11;;;;;;;;;;;;;;;;;;6135117;23;19944;-96
2023/05/13 10:03:40;;;;;;;;;;;;;;;;;;6135918;23;19965;-95
2023/05/13 10:06:10;;;;;;;;;;;;;;;;;;6160102;23;19941;-95
2023/05/13 10:08:38;;;;;;;;;;;;;;;;;;6135381;23;19948;-96
2023/05/13 10:11:08;;;;;;;;;;;;;;;;;;6135097;23;19957;-96
2023/05/13 10:13:41;;;;;;;;;;;;;;;;;;6136964;23;19945;-96
2023/05/13 10:16:13;;;;;;;;;;;;;;;;;;6135816;23;19944;-96
2023/05/13 10:18:44;;;;;;;;;;;;;;;;;;6135473;23;19948;-96
2023/05/13 10:21:13;;;;;;;;;;;;;;;;;;6135662;23;19949;-96
2023/05/13 10:23:40;;;;;;;;;;;;;;;;;;6135850;23;19948;-96
2023/05/13 10:26:17;;;;;;;;;;;;;;;;;;6137671;23;19948;-96
2023/05/13 10:28:44;;;;;;;;;;;;;;;;;;6135489;23;19944;-96
2023/05/13 10:31:14;;;;;;;;;;;;;;;;;;6136000;23;19944;-96
2023/05/13 10:33:41;;;;;;;;;;;;;;;;;;6163295;23;19944;-96
2023/05/13 10:36:24;;;;;;;;;;;;;;;;;;6136898;23;19949;-95
2023/05/13 10:39:11;;;;;;;;;;;;;;;;;;6135079;23;19948;-96
2023/05/13 10:41:56;;;;;;;;;;;;;;;;;;6135321;23;19944;-96
2023/05/13 10:44:25;;;;;;;;;;;;;;;;;;6135566;23;19952;-96
2023/05/13 10:46:53;;;;;;;;;;;;;;;;;;6135491;23;19948;-96
2023/05/13 10:49:23;;;;;;;;;;;;;;;;;;6159617;23;19948;-96
2023/05/13 10:52:05;;;;;;;;;;;;;;;;;;6136497;23;19948;-96
2023/05/13 10:54:42;;;;;;;;;;;;;;;;;;6136831;23;19944;-95
2023/05/13 10:57:09;;;;;;;;;;;;;;;;;;6159716;23;19952;-96
2023/05/13 10:59:39;;;;;;;;;;;;;;;;;;6135082;23;19948;-95
2023/05/13 11:02:39;;;;;;;;;;;;;;;;;;6194735;23;19945;-95
2023/05/13 11:05:07;;;;;;;;;;;;;;;;;;6135501;23;19944;-96
2023/05/13 11:07:39;;;;;;;;;;;;;;;;;;6135249;23;19948;-96
2023/05/13 11:10:18;;;;;;;;;;;;;;;;;;6134918;23;19949;-96
2023/05/13 11:13:08;;;;;;;;;;;;;;;;;;6159267;23;19948;-96
2023/05/13 11:15:51;;;;;;;;;;;;;;;;;;6135253;23;19956;-96
2023/05/13 11:18:20;;;;;;;;;;;;;;;;;;6159501;23;19957;-96
2023/05/13 11:20:52;;;;;;;;;;;;;;;;;;6135352;23;19990;-95
2023/05/13 11:23:23;;;;;;;;;;;;;;;;;;6134942;23;20232;-96
2023/05/13 11:26:06;;;;;;;;;;;;;;;;;;6135502;23;19960;-96
2023/05/13 11:28:48;;;;;;;;;;;;;;;;;;6134988;23;19994;-96
2023/05/13 11:31:15;;;;;;;;;;;;;;;;;;6184370;23;19908;-96
2023/05/13 11:33:58;;;;;;;;;;;;;;;;;;6134912;23;19948;-96
2023/05/13 11:36:29;;;;;;;;;;;;;;;;;;6135196;23;19953;-96
2023/05/13 11:39:12;;;;;;;;;;;;;;;;;;6135106;23;19949;-96
2023/05/13 11:41:43;;;;;;;;;;;;;;;;;;6135133;23;19948;-95
2023/05/13 11:44:11;;;;;;;;;;;;;;;;;;6134343;23;19956;-95
2023/05/13 11:46:40;;;;;;;;;;;;;;;;;;6135440;23;19948;-96
2023/05/13 11:49:11;;;;;;;;;;;;;;;;;;6136915;23;19952;-96
2023/05/13 11:51:39;;;;;;;;;;;;;;;;;;6137119;23;19948;-96
2023/05/13 11:54:07;;;;;;;;;;;;;;;;;;6161668;23;19945;-96
2023/05/13 11:56:40;;;;;;;;;;;;;;;;;;6161286;23;19944;-96
2023/05/13 11:59:14;;;;;;;;;;;;;;;;;;6186568;23;19944;-96
2023/05/13 12:01:43;;;;;;;;;;;;;;;;;;6137002;23;19948;-95
2023/05/13 12:04:13;;;;;;;;;;;;;;;;;;6160906;23;19948;-96
2023/05/13 12:06:47;;;;;;;;;;;;;;;;;;6137247;23;19948;-96
2023/05/13 12:09:18;;;;;;;;;;;;;;;;;;6136412;23;19956;-94
2023/05/13 12:11:46;;;;;;;;;;;;;;;;;;6196387;23;19944;-95
2023/05/13 12:14:13;;;;;;;;;;;;;;;;;;6136957;23;19951;-96
2023/05/13 12:16:50;;;;;;;;;;;;;;;;;;6192328;23;19945;-96
2023/05/13 12:19:20;;;;;;;;;;;;;;;;;;6170769;23;19949;-96
2023/05/13 12:21:55;;;;;;;;;;;;;;;;;;6136856;23;19948;-95
2023/05/13 12:24:27;;;;;;;;;;;;;;;;;;6136529;23;19948;-96
2023/05/13 12:27:04;;;;;;;;;;;;;;;;;;6190356;23;19940;-96
2023/05/13 12:29:39;;;;;;;;;;;;;;;;;;6159318;23;19968;-95
2023/05/13 12:32:06;;;;;;;;;;;;;;;;;;6134637;23;19944;-96
2023/05/13 12:34:37;;;;;;;;;;;;;;;;;;6134253;23;19961;-94
2023/05/13 12:37:11;;;;;;;;;;;;;;;;;;6163998;23;19964;-95
2023/05/13 12:39:55;;;;;;;;;;;;;;;;;;6159687;23;19956;-93
2023/05/13 12:42:25;;;;;;;;;;;;;;;;;;6134642;23;19956;-95
2023/05/13 12:44:55;;;;;;;;;;;;;;;;;;6134987;23;19948;-95
2023/05/13 12:47:51;;;;;;;;;;;;;;;;;;6174626;23;19956;-95
2023/05/13 12:50:21;;;;;;;;;;;;;;;;;;6169327;23;19941;-96
2023/05/13 12:52:51;;;;;;;;;;;;;;;;;;6134332;23;19909;-96
2023/05/13 12:55:23;;;;;;;;;;;;;;;;;;6134935;23;19966;-94
2023/05/13 12:57:58;;;;;;;;;;;;;;;;;;6134368;23;19944;-96
2023/05/13 13:00:30;;;;;;;;;;;;;;;;;;6159150;23;19953;-93
2023/05/13 13:02:59;;;;;;;;;;;;;;;;;;6159775;23;19960;-95
2023/05/13 13:05:33;;;;;;;;;;;;;;;;;;6134264;23;19940;-95
2023/05/13 13:08:01;;;;;;;;;;;;;;;;;;6134261;23;19948;-95
2023/05/13 13:10:30;;;;;;;;;;;;;;;;;;6134170;23;19965;-95
2023/05/13 13:12:57;;;;;;;;;;;;;;;;;;6134398;23;19948;-95
2023/05/13 13:15:24;;;;;;;;;;;;;;;;;;6184531;23;19949;-95
2023/05/13 13:17:55;;;;;;;;;;;;;;;;;;6158798;23;20165;-95
2023/05/13 13:20:24;;;;;;;;;;;;;;;;;;6134324;23;20117;-95
2023/05/13 13:23:01;;;;;;;;;;;;;;;;;;6136164;23;19972;-95
2023/05/13 13:25:31;;;;;;;;;;;;;;;;;;6134391;23;19952;-95
2023/05/13 13:28:00;;;;;;;;;;;;;;;;;;6134154;23;19964;-95
2023/05/13 13:30:38;;;;;;;;;;;;;;;;;;6134216;23;19949;-96
2023/05/13 13:33:05;;;;;;;;;;;;;;;;;;6159088;23;19949;-96
2023/05/13 13:35:38;;;;;;;;;;;;;;;;;;6134780;23;19952;-95
2023/05/13 13:38:07;;;;;;;;;;;;;;;;;;6133784;23;19945;-94
2023/05/13 13:40:35;;;;;;;;;;;;;;;;;;6133798;23;19956;-94
2023/05/13 13:43:10;;;;;;;;;;;;;;;;;;6159106;23;19953;-95
2023/05/13 13:45:40;;;;;;;;;;;;;;;;;;6169330;23;19944;-94
2023/05/13 13:48:09;;;;;;;;;;;;;;;;;;6158586;23;19952;-95
2023/05/13 13:50:36;;;;;;;;;;;;;;;;;;6158599;23;19956;-95
2023/05/13 13:53:03;;;;;;;;;;;;;;;;;;6133344;23;19948;-95
2023/05/13 13:55:33;;;;;;;;;;;;;;;;;;6133930;23;19964;-95
2023/05/13 13:58:03;;;;;;;;;;;;;;;;;;6158638;23;19953;-95
2023/05/13 14:00:34;;;;;;;;;;;;;;;;;;6133319;23;19944;-95
2023/05/13 14:03:03;;;;;;;;;;;;;;;;;;6158056;23;20010;-94
2023/05/13 14:05:31;;;;;;;;;;;;;;;;;;6158421;23;19965;-95
2023/05/13 14:08:03;;;;;;;;;;;;;;;;;;6183188;23;19944;-94
2023/05/13 14:10:31;;;;;;;;;;;;;;;;;;6133506;23;19948;-95
2023/05/13 14:13:03;;;;;;;;;;;;;;;;;;6133037;23;19952;-95
2023/05/13 14:15:37;;;;;;;;;;;;;;;;;;6158485;23;19953;-96
2023/05/13 14:18:07;;;;;;;;;;;;;;;;;;6158066;23;19944;-95
2023/05/13 14:20:41;;;;;;;;;;;;;;;;;;6157983;23;19952;-96
2023/05/13 14:23:30;;;;;;;;;;;;;;;;;;6141252;23;19948;-95
2023/05/13 14:26:01;;;;;;;;;;;;;;;;;;6183629;23;19949;-95
2023/05/13 14:28:28;;;;;;;;;;;;;;;;;;6133506;23;19940;-95
2023/05/13 14:31:00;;;;;;;;;;;;;;;;;;6133845;23;19981;-95
2023/05/13 14:33:38;;;;;;;;;;;;;;;;;;6134333;23;19911;-95
2023/05/13 14:36:08;;;;;;;;;;;;;;;;;;6158393;23;19948;-95
2023/05/13 14:38:35;;;;;;;;;;;;;;;;;;6157583;23;19944;-95
2023/05/13 14:41:03;;;;;;;;;;;;;;;;;;6183556;23;19944;-96
2023/05/13 14:43:31;;;;;;;;;;;;;;;;;;6133694;23;19956;-94
2023/05/13 14:46:07;;;;;;;;;;;;;;;;;;6135861;23;19952;-94
2023/05/13 14:48:35;;;;;;;;;;;;;;;;;;6168336;23;19940;-96
2023/05/13 14:51:07;;;;;;;;;;;;;;;;;;6158921;23;19956;-95
2023/05/13 14:53:37;;;;;;;;;;;;;;;;;;6133908;23;19956;-95
2023/05/13 14:56:05;;;;;;;;;;;;;;;;;;6158675;23;19949;-94
2023/05/13 14:58:32;;;;;;;;;;;;;;;;;;6157704;23;19961;-95
2023/05/13 15:01:02;;;;;;;;;;;;;;;;;;6133526;23;19960;-96
2023/05/13 15:03:31;;;;;;;;;;;;;;;;;;6133603;23;19949;-95
2023/05/13 15:06:03;;;;;;;;;;;;;;;;;;6191945;23;19948;-95
2023/05/13 15:08:35;;;;;;;;;;;;;;;;;;6157825;23;19908;-95
2023/05/13 15:11:04;;;;;;;;;;;;;;;;;;6157577;23;19973;-95
2023/05/13 15:13:35;;;;;;;;;;;;;;;;;;6133585;23;19944;-96
2023/05/13 15:16:09;;;;;;;;;;;;;;;;;;6133464;23;19952;-95
2023/05/13 15:18:48;;;;;;;;;;;;;;;;;;6167855;23;19956;-96
2023/05/13 15:21:16;;;;;;;;;;;;;;;;;;6158015;23;19945;-94
2023/05/13 15:23:43;;;;;;;;;;;;;;;;;;6135529;23;19960;-96
2023/05/13 15:26:11;;;;;;;;;;;;;;;;;;6159437;23;19944;-95
2023/05/13 15:28:38;;;;;;;;;;;;;;;;;;6135540;23;19949;-95
2023/05/13 15:31:05;;;;;;;;;;;;;;;;;;6134928;23;19948;-96
2023/05/13 15:33:37;;;;;;;;;;;;;;;;;;6185329;23;19944;-95
2023/05/13 15:36:08;;;;;;;;;;;;;;;;;;6135629;23;19944;-95
2023/05/13 15:38:36;;;;;;;;;;;;;;;;;;6159727;23;19953;-94
2023/05/13 15:41:14;;;;;;;;;;;;;;;;;;6135516;23;19956;-96
2023/05/13 15:43:45;;;;;;;;;;;;;;;;;;6135885;23;19952;-95
2023/05/13 15:46:16;;;;;;;;;;;;;;;;;;6136535;23;19948;-95
2023/05/13 15:48:47;;;;;;;;;;;;;;;;;;6135706;23;19949;-95
2023/05/13 15:51:23;;;;;;;;;;;;;;;;;;6160504;23;19945;-95
2023/05/13 15:54:11;;;;;;;;;;;;;;;;;;6158180;23;20155;-96
2023/05/13 15:56:45;;;;;;;;;;;;;;;;;;6173309;23;19920;-80
2023/05/13 15:59:12;;;;;;;;;;;;;;;;;;6155261;23;19926;-80
2023/05/13 16:01:40;;;;;;;;;;;;;;;;;;6156928;23;19920;-80
2023/05/13 16:25:13;;;;;;;;;;;;;;;;;;6218374;22;19924;-80
2023/05/13 16:27:43;;;;;;;;;;;;;;;;;;6182800;23;19921;-80
2023/05/13 16:30:13;;;;;;;;;;;;;;;;;;6152712;23;19921;-80
2023/05/13 16:32:43;;;;;;;;;;;;;;;;;;6128242;23;19926;-80
2023/05/13 16:35:11;;;;;;;;;;;;;;;;;;6152727;23;19927;-80
2023/05/13 16:37:42;;;;;;;;;;;;;;;;;;6164484;23;19904;-80
2023/05/13 16:40:16;;;;;;;;;;;;;;;;;;6153827;23;19921;-80
2023/05/13 16:42:46;;;;;;;;;;;;;;;;;;6128666;23;19927;-80
2023/05/13 16:45:14;;;;;;;;;;;;;;;;;;6129271;23;19909;-80
2023/05/13 16:47:41;;;;;;;;;;;;;;;;;;6153891;23;20299;-80
2023/05/13 16:50:08;;;;;;;;;;;;;;;;;;6153213;23;19921;-80
2023/05/13 17:00:34;;;;;;;;;;;;;;;;;;6213868;22;19956;-95
2023/05/13 17:03:02;;;;;;;;;;;;;;;;;;6226079;23;19936;-94
2023/05/13 17:05:36;;;;;;;;;;;;;;;;;;6191314;23;19952;-94
2023/05/13 17:08:06;;;;;;;;;;;;;;;;;;6216063;23;19944;-95
2023/05/13 17:10:34;;;;;;;;;;;;;;;;;;6165600;23;19940;-95
2023/05/13 17:19:57;;;;;;;;;;;;;;;;;;6117155;23;19927;-79
2023/05/13 17:22:24;;;;;;;;;;;;;;;;;;6156085;23;19931;-79
2023/05/13 17:24:51;;;;;;;;;;;;;;;;;;6130227;23;19973;-79
2023/05/13 17:27:18;;;;;;;;;;;;;;;;;;6129478;23;19928;-78
2023/05/13 17:29:47;;;;;;;;;;;;;;;;;;6154730;23;19921;-79
2023/05/13 17:32:16;;;;;;;;;;;;;;;;;;6153799;23;19927;-81
2023/05/13 17:34:46;;;;;;;;;;;;;;;;;;6188780;23;19931;-81
2023/05/13 17:37:16;;;;;;;;;;;;;;;;;;6153231;23;19921;-80
2023/05/13 17:39:44;;;;;;;;;;;;;;;;;;6153426;23;19930;-80
2023/05/13 17:42:14;;;;;;;;;;;;;;;;;;6178271;23;19921;-80
2023/05/13 17:44:41;;;;;;;;;;;;;;;;;;6128892;23;19920;-81
2023/05/13 17:47:14;;;;;;;;;;;;;;;;;;6164720;23;19921;-81
2023/05/13 17:49:44;;;;;;;;;;;;;;;;;;6153099;23;19920;-80
2023/05/13 17:52:11;;;;;;;;;;;;;;;;;;6179074;23;19921;-79
2023/05/13 18:19:34;;;;;;;;;;;;;;;;;;6193059;23;19926;-80
2023/05/13 18:22:04;;;;;;;;;;;;;;;;;;6157362;23;19927;-80
2023/05/13 18:24:33;;;;;;;;;;;;;;;;;;6157868;23;20208;-80
2023/05/13 18:27:01;;;;;;;;;;;;;;;;;;6158263;23;19921;-80
2023/05/13 18:29:28;;;;;;;;;;;;;;;;;;6157311;23;19920;-80
2023/05/13 18:31:55;;;;;;;;;;;;;;;;;;6157527;23;20352;-79
2023/05/13 18:34:30;;;;;;;;;;;;;;;;;;6157909;23;19921;-80
2023/05/13 18:36:59;;;;;;;;;;;;;;;;;;6157842;23;19920;-80
2023/05/13 18:39:30;;;;;;;;;;;;;;;;;;6187536;23;19926;-79
2023/05/13 18:41:57;;;;;;;;;;;;;;;;;;6158195;23;20336;-79
2023/05/13 18:44:25;;;;;;;;;;;;;;;;;;6182760;23;19904;-80
2023/05/13 18:46:52;;;;;;;;;;;;;;;;;;6156450;23;19920;-79
2023/05/13 18:49:23;;;;;;;;;;;;;;;;;;6133301;23;19920;-80
2023/05/13 18:51:50;;;;;;;;;;;;;;;;;;6157081;23;19920;-79
2023/05/13 18:54:21;;;;;;;;;;;;;;;;;;6156626;23;19927;-79
2023/05/13 18:56:48;;;;;;;;;;;;;;;;;;6187857;23;19947;-81
2023/05/13 18:59:19;;;;;;;;;;;;;;;;;;6162734;23;19960;-81
2023/05/13 19:01:46;;;;;;;;;;;;;;;;;;6158046;23;19929;-81
2023/05/13 19:04:18;;;;;;;;;;;;;;;;;;6194238;23;20359;-81
2023/05/13 19:06:45;;;;;;;;;;;;;;;;;;6181669;23;19924;-81
2023/05/13 19:09:15;;;;;;;;;;;;;;;;;;6157112;23;19930;-81
2023/05/13 19:11:45;;;;;;;;;;;;;;;;;;6157567;23;19921;-81
2023/05/13 19:14:16;;;;;;;;;;;;;;;;;;6157580;23;20340;-80
2023/05/13 19:16:45;;;;;;;;;;;;;;;;;;6181839;23;19920;-81
2023/05/13 19:19:13;;;;;;;;;;;;;;;;;;6183089;23;19920;-81
2023/05/13 19:21:40;;;;;;;;;;;;;;;;;;6182948;23;19949;-81
2023/05/13 19:24:08;;;;;;;;;;;;;;;;;;6133550;23;19927;-81
2023/05/13 19:26:35;;;;;;;;;;;;;;;;;;6182712;23;19924;-81
2023/05/13 19:29:04;;;;;;;;;;;;;;;;;;6157571;23;19920;-81
2023/05/13 19:31:33;;;;;;;;;;;;;;;;;;6181698;23;19920;-80
2023/05/13 19:34:03;;;;;;;;;;;;;;;;;;6156877;23;20348;-81
2023/05/13 19:36:30;;;;;;;;;;;;;;;;;;6158287;23;19921;-80
2023/05/13 19:53:46;;;;;;;;;;;;;;;;;;6184289;23;19948;-95
2023/05/13 19:56:20;;;;;;;;;;;;;;;;;;6159275;23;19944;-95
2023/05/13 19:58:50;;;;;;;;;;;;;;;;;;6134815;23;19948;-96
2023/05/13 20:01:31;;;;;;;;;;;;;;;;;;6136517;23;19949;-96
2023/05/13 20:04:04;;;;;;;;;;;;;;;;;;6135307;23;19956;-95
2023/05/13 20:06:36;;;;;;;;;;;;;;;;;;6159109;23;19952;-95
2023/05/13 20:09:08;;;;;;;;;;;;;;;;;;6135879;23;19948;-95
2023/05/13 20:11:36;;;;;;;;;;;;;;;;;;6136915;23;19948;-95
2023/05/13 20:14:03;;;;;;;;;;;;;;;;;;6161221;23;19944;-95
2023/05/13 20:16:34;;;;;;;;;;;;;;;;;;6136771;23;19948;-95
2023/05/13 20:19:06;;;;;;;;;;;;;;;;;;6135950;23;19956;-95
2023/05/13 20:21:36;;;;;;;;;;;;;;;;;;6136678;23;19956;-95
2023/05/13 20:24:05;;;;;;;;;;;;;;;;;;6135461;23;19941;-92
2023/05/13 20:26:33;;;;;;;;;;;;;;;;;;6190783;23;19942;-94
2023/05/13 20:29:01;;;;;;;;;;;;;;;;;;6159309;23;19945;-95
2023/05/13 20:31:32;;;;;;;;;;;;;;;;;;6134909;23;19948;-93
2023/05/13 20:34:05;;;;;;;;;;;;;;;;;;6134319;23;19948;-94
2023/05/13 20:36:33;;;;;;;;;;;;;;;;;;6184556;23;19956;-94
2023/05/13 20:39:00;;;;;;;;;;;;;;;;;;6134438;23;19940;-93
2023/05/13 20:41:30;;;;;;;;;;;;;;;;;;6134902;23;19964;-95
2023/05/13 20:43:58;;;;;;;;;;;;;;;;;;6159344;23;19945;-94
2023/05/13 20:46:30;;;;;;;;;;;;;;;;;;6158360;23;19948;-94
2023/05/13 20:48:57;;;;;;;;;;;;;;;;;;6158775;23;19953;-94
2023/05/13 20:51:25;;;;;;;;;;;;;;;;;;6134836;23;19940;-94
2023/05/13 20:53:55;;;;;;;;;;;;;;;;;;6159110;23;19940;-96
2023/05/13 20:56:24;;;;;;;;;;;;;;;;;;6134727;23;19952;-94
2023/05/13 20:58:55;;;;;;;;;;;;;;;;;;6158964;23;19944;-94
2023/05/13 21:01:23;;;;;;;;;;;;;;;;;;6133683;23;19948;-95
2023/05/13 21:03:57;;;;;;;;;;;;;;;;;;6135495;23;19960;-94
2023/05/13 21:06:25;;;;;;;;;;;;;;;;;;6184026;23;19940;-94
2023/05/13 21:08:52;;;;;;;;;;;;;;;;;;6159285;23;19944;-94
2023/05/13 21:11:25;;;;;;;;;;;;;;;;;;6169600;23;19940;-94
2023/05/13 21:13:54;;;;;;;;;;;;;;;;;;6134520;23;19948;-94
2023/05/13 21:16:24;;;;;;;;;;;;;;;;;;6165897;23;19919;-95
2023/05/13 21:18:54;;;;;;;;;;;;;;;;;;6158399;23;19949;-96
2023/05/13 21:21:23;;;;;;;;;;;;;;;;;;6133845;23;19961;-95
2023/05/13 21:23:50;;;;;;;;;;;;;;;;;;6134839;23;19953;-94
2023/05/13 21:26:18;;;;;;;;;;;;;;;;;;6134700;23;19944;-95
2023/05/13 21:28:45;;;;;;;;;;;;;;;;;;6134338;23;19948;-95
2023/05/13 21:31:17;;;;;;;;;;;;;;;;;;6134128;23;19974;-95
2023/05/13 21:33:50;;;;;;;;;;;;;;;;;;6159283;23;19948;-93
2023/05/13 21:36:20;;;;;;;;;;;;;;;;;;6135189;23;19944;-95
2023/05/13 21:38:48;;;;;;;;;;;;;;;;;;6134273;23;19981;-95
2023/05/13 21:41:18;;;;;;;;;;;;;;;;;;6134661;23;19941;-94